sensor_id;sensor_type;location;lat;lon;timestamp;P1;durP1;ratioP1;P2;durP2;ratioP2
7669;SDS011;3877;42.562;27.636;2023-01-08T00:00:55;21.33;;;16.33;;
7669;SDS011;3877;42.562;27.636;2023-01-08T00:03:22;21.93;;;17.17;;
7669;SDS011;3877;42.562;27.636;2023-01-08T00:05:50;27.77;;;17.40;;
7669;SDS011;3877;42.562;27.636;2023-01-08T00:08:17;28.33;;;18.93;;
7669;SDS011;3877;42.562;27.636;2023-01-08T00:10:44;32.60;;;21.90;;
7669;SDS011;3877;42.562;27.636;2023-01-08T00:13:11;33.37;;;23.07;;
7669;SDS011;3877;42.562;27.636;2023-01-08T00:15:38;33.07;;;21.23;;
7669;SDS011;3877;42.562;27.636;2023-01-08T00:18:04;40.40;;;25.73;;
7669;SDS011;3877;42.562;27.636;2023-01-08T00:20:31;43.87;;;27.73;;
7669;SDS011;3877;42.562;27.636;2023-01-08T00:22:59;46.80;;;29.23;;
7669;SDS011;3877;42.562;27.636;2023-01-08T00:25:26;48.43;;;31.53;;
7669;SDS011;3877;42.562;27.636;2023-01-08T00:27:53;48.80;;;31.47;;
7669;SDS011;3877;42.562;27.636;2023-01-08T00:30:20;47.97;;;32.17;;
7669;SDS011;3877;42.562;27.636;2023-01-08T00:32:47;49.57;;;31.83;;
7669;SDS011;3877;42.562;27.636;2023-01-08T00:35:14;48.27;;;30.70;;
7669;SDS011;3877;42.562;27.636;2023-01-08T00:37:41;46.40;;;32.90;;
7669;SDS011;3877;42.562;27.636;2023-01-08T00:40:09;51.30;;;33.43;;
7669;SDS011;3877;42.562;27.636;2023-01-08T00:42:36;51.00;;;34.23;;
7669;SDS011;3877;42.562;27.636;2023-01-08T00:45:03;48.40;;;33.40;;
7669;SDS011;3877;42.562;27.636;2023-01-08T00:47:30;42.53;;;29.43;;
7669;SDS011;3877;42.562;27.636;2023-01-08T00:49:57;44.37;;;29.13;;
7669;SDS011;3877;42.562;27.636;2023-01-08T00:52:24;43.57;;;29.50;;
7669;SDS011;3877;42.562;27.636;2023-01-08T00:54:50;42.73;;;28.67;;
7669;SDS011;3877;42.562;27.636;2023-01-08T00:57:18;42.07;;;29.13;;
7669;SDS011;3877;42.562;27.636;2023-01-08T00:59:45;46.03;;;30.67;;
7669;SDS011;3877;42.562;27.636;2023-01-08T01:02:12;46.37;;;30.27;;
7669;SDS011;3877;42.562;27.636;2023-01-08T01:04:39;43.00;;;29.97;;
7669;SDS011;3877;42.562;27.636;2023-01-08T01:07:06;41.17;;;28.00;;
7669;SDS011;3877;42.562;27.636;2023-01-08T01:09:33;45.13;;;29.43;;
7669;SDS011;3877;42.562;27.636;2023-01-08T01:11:59;46.13;;;30.97;;
7669;SDS011;3877;42.562;27.636;2023-01-08T01:14:28;47.63;;;29.60;;
7669;SDS011;3877;42.562;27.636;2023-01-08T01:16:55;42.77;;;28.90;;
7669;SDS011;3877;42.562;27.636;2023-01-08T01:19:21;42.30;;;30.23;;
7669;SDS011;3877;42.562;27.636;2023-01-08T01:21:48;41.37;;;30.03;;
7669;SDS011;3877;42.562;27.636;2023-01-08T01:24:15;44.03;;;30.90;;
7669;SDS011;3877;42.562;27.636;2023-01-08T01:26:42;44.53;;;29.90;;
7669;SDS011;3877;42.562;27.636;2023-01-08T01:29:08;45.37;;;29.43;;
7669;SDS011;3877;42.562;27.636;2023-01-08T01:31:37;45.43;;;30.57;;
7669;SDS011;3877;42.562;27.636;2023-01-08T01:34:03;45.33;;;31.20;;
7669;SDS011;3877;42.562;27.636;2023-01-08T01:36:30;49.80;;;31.07;;
7669;SDS011;3877;42.562;27.636;2023-01-08T01:38:57;44.00;;;32.00;;
7669;SDS011;3877;42.562;27.636;2023-01-08T01:41:25;45.03;;;32.00;;
7669;SDS011;3877;42.562;27.636;2023-01-08T01:43:52;44.73;;;31.30;;
7669;SDS011;3877;42.562;27.636;2023-01-08T01:46:21;48.37;;;30.67;;
7669;SDS011;3877;42.562;27.636;2023-01-08T01:48:52;41.13;;;29.50;;
7669;SDS011;3877;42.562;27.636;2023-01-08T01:51:20;44.37;;;31.10;;
7669;SDS011;3877;42.562;27.636;2023-01-08T01:53:47;48.30;;;31.03;;
7669;SDS011;3877;42.562;27.636;2023-01-08T01:56:14;49.17;;;31.97;;
7669;SDS011;3877;42.562;27.636;2023-01-08T01:58:41;45.60;;;30.33;;
7669;SDS011;3877;42.562;27.636;2023-01-08T02:01:08;43.87;;;31.13;;
7669;SDS011;3877;42.562;27.636;2023-01-08T02:03:35;47.27;;;32.50;;
7669;SDS011;3877;42.562;27.636;2023-01-08T02:06:04;46.27;;;31.33;;
7669;SDS011;3877;42.562;27.636;2023-01-08T02:08:37;45.67;;;32.03;;
7669;SDS011;3877;42.562;27.636;2023-01-08T02:11:09;46.87;;;31.40;;
7669;SDS011;3877;42.562;27.636;2023-01-08T02:13:38;44.27;;;31.97;;
7669;SDS011;3877;42.562;27.636;2023-01-08T02:16:07;43.90;;;29.53;;
7669;SDS011;3877;42.562;27.636;2023-01-08T02:18:37;38.63;;;29.10;;
7669;SDS011;3877;42.562;27.636;2023-01-08T02:21:08;45.47;;;31.27;;
7669;SDS011;3877;42.562;27.636;2023-01-08T02:23:36;42.47;;;29.83;;
7669;SDS011;3877;42.562;27.636;2023-01-08T02:26:13;51.00;;;31.30;;
7669;SDS011;3877;42.562;27.636;2023-01-08T02:28:41;46.30;;;31.73;;
7669;SDS011;3877;42.562;27.636;2023-01-08T02:31:10;43.50;;;30.43;;
7669;SDS011;3877;42.562;27.636;2023-01-08T02:33:38;47.57;;;30.43;;
7669;SDS011;3877;42.562;27.636;2023-01-08T02:36:17;48.37;;;31.40;;
7669;SDS011;3877;42.562;27.636;2023-01-08T02:38:49;50.30;;;32.53;;
7669;SDS011;3877;42.562;27.636;2023-01-08T02:41:21;50.23;;;33.17;;
7669;SDS011;3877;42.562;27.636;2023-01-08T02:43:51;55.37;;;35.20;;
7669;SDS011;3877;42.562;27.636;2023-01-08T02:46:21;55.57;;;34.73;;
7669;SDS011;3877;42.562;27.636;2023-01-08T02:48:50;45.53;;;31.00;;
7669;SDS011;3877;42.562;27.636;2023-01-08T02:51:21;48.60;;;31.73;;
7669;SDS011;3877;42.562;27.636;2023-01-08T02:53:53;49.53;;;32.43;;
7669;SDS011;3877;42.562;27.636;2023-01-08T02:56:26;46.87;;;30.80;;
7669;SDS011;3877;42.562;27.636;2023-01-08T02:58:54;47.60;;;30.23;;
7669;SDS011;3877;42.562;27.636;2023-01-08T03:01:21;49.77;;;30.33;;
7669;SDS011;3877;42.562;27.636;2023-01-08T03:03:51;41.13;;;29.47;;
7669;SDS011;3877;42.562;27.636;2023-01-08T03:06:19;48.13;;;31.63;;
7669;SDS011;3877;42.562;27.636;2023-01-08T03:08:47;46.23;;;32.80;;
7669;SDS011;3877;42.562;27.636;2023-01-08T03:11:15;52.57;;;34.03;;
7669;SDS011;3877;42.562;27.636;2023-01-08T03:13:44;46.57;;;31.30;;
7669;SDS011;3877;42.562;27.636;2023-01-08T03:16:14;47.83;;;31.63;;
7669;SDS011;3877;42.562;27.636;2023-01-08T03:18:45;46.20;;;31.13;;
7669;SDS011;3877;42.562;27.636;2023-01-08T03:21:12;40.17;;;28.07;;
7669;SDS011;3877;42.562;27.636;2023-01-08T03:23:40;50.33;;;31.27;;
7669;SDS011;3877;42.562;27.636;2023-01-08T03:26:07;48.47;;;31.60;;
7669;SDS011;3877;42.562;27.636;2023-01-08T03:28:36;49.37;;;32.37;;
7669;SDS011;3877;42.562;27.636;2023-01-08T03:31:05;49.60;;;31.70;;
7669;SDS011;3877;42.562;27.636;2023-01-08T03:33:32;50.67;;;32.97;;
7669;SDS011;3877;42.562;27.636;2023-01-08T03:36:00;47.80;;;32.40;;
7669;SDS011;3877;42.562;27.636;2023-01-08T03:38:29;45.13;;;32.90;;
7669;SDS011;3877;42.562;27.636;2023-01-08T03:40:59;49.33;;;33.57;;
7669;SDS011;3877;42.562;27.636;2023-01-08T03:43:27;47.83;;;30.87;;
7669;SDS011;3877;42.562;27.636;2023-01-08T03:45:55;49.67;;;31.13;;
7669;SDS011;3877;42.562;27.636;2023-01-08T03:48:24;47.60;;;30.23;;
7669;SDS011;3877;42.562;27.636;2023-01-08T03:50:51;44.00;;;31.30;;
7669;SDS011;3877;42.562;27.636;2023-01-08T03:53:18;45.63;;;33.37;;
7669;SDS011;3877;42.562;27.636;2023-01-08T03:55:45;46.50;;;33.27;;
7669;SDS011;3877;42.562;27.636;2023-01-08T03:58:11;44.93;;;30.10;;
7669;SDS011;3877;42.562;27.636;2023-01-08T04:00:38;46.53;;;31.27;;
7669;SDS011;3877;42.562;27.636;2023-01-08T04:03:05;47.73;;;31.37;;
7669;SDS011;3877;42.562;27.636;2023-01-08T04:05:33;44.90;;;31.43;;
7669;SDS011;3877;42.562;27.636;2023-01-08T04:08:00;52.57;;;33.07;;
7669;SDS011;3877;42.562;27.636;2023-01-08T04:10:27;48.47;;;33.70;;
7669;SDS011;3877;42.562;27.636;2023-01-08T04:12:54;34.83;;;25.97;;
7669;SDS011;3877;42.562;27.636;2023-01-08T04:15:21;38.40;;;23.83;;
7669;SDS011;3877;42.562;27.636;2023-01-08T04:17:47;37.37;;;24.43;;
7669;SDS011;3877;42.562;27.636;2023-01-08T04:20:14;29.10;;;20.37;;
7669;SDS011;3877;42.562;27.636;2023-01-08T04:22:42;26.20;;;17.07;;
7669;SDS011;3877;42.562;27.636;2023-01-08T04:25:09;27.03;;;17.93;;
7669;SDS011;3877;42.562;27.636;2023-01-08T04:27:36;30.03;;;20.40;;
7669;SDS011;3877;42.562;27.636;2023-01-08T04:30:03;46.67;;;31.03;;
7669;SDS011;3877;42.562;27.636;2023-01-08T04:32:30;46.73;;;35.00;;
7669;SDS011;3877;42.562;27.636;2023-01-08T04:34:57;54.93;;;39.67;;
7669;SDS011;3877;42.562;27.636;2023-01-08T04:37:24;58.30;;;40.20;;
7669;SDS011;3877;42.562;27.636;2023-01-08T04:39:52;56.07;;;40.30;;
7669;SDS011;3877;42.562;27.636;2023-01-08T04:42:19;58.67;;;39.40;;
7669;SDS011;3877;42.562;27.636;2023-01-08T04:44:58;58.60;;;39.20;;
7669;SDS011;3877;42.562;27.636;2023-01-08T04:47:25;51.37;;;37.20;;
7669;SDS011;3877;42.562;27.636;2023-01-08T04:49:51;56.50;;;36.27;;
7669;SDS011;3877;42.562;27.636;2023-01-08T04:52:18;58.97;;;37.73;;
7669;SDS011;3877;42.562;27.636;2023-01-08T04:54:45;59.30;;;38.10;;
7669;SDS011;3877;42.562;27.636;2023-01-08T04:57:13;56.40;;;40.07;;
7669;SDS011;3877;42.562;27.636;2023-01-08T04:59:40;58.47;;;38.27;;
7669;SDS011;3877;42.562;27.636;2023-01-08T05:02:07;54.27;;;38.23;;
7669;SDS011;3877;42.562;27.636;2023-01-08T05:04:34;57.47;;;40.30;;
7669;SDS011;3877;42.562;27.636;2023-01-08T05:07:02;60.40;;;40.47;;
7669;SDS011;3877;42.562;27.636;2023-01-08T05:09:29;57.53;;;40.57;;
7669;SDS011;3877;42.562;27.636;2023-01-08T05:11:55;65.93;;;41.80;;
7669;SDS011;3877;42.562;27.636;2023-01-08T05:14:24;61.83;;;41.43;;
7669;SDS011;3877;42.562;27.636;2023-01-08T05:16:50;63.17;;;41.13;;
7669;SDS011;3877;42.562;27.636;2023-01-08T05:19:17;75.17;;;42.10;;
7669;SDS011;3877;42.562;27.636;2023-01-08T05:21:44;113.30;;;44.50;;
7669;SDS011;3877;42.562;27.636;2023-01-08T05:24:11;79.27;;;43.20;;
7669;SDS011;3877;42.562;27.636;2023-01-08T05:26:38;92.93;;;45.37;;
7669;SDS011;3877;42.562;27.636;2023-01-08T05:29:04;92.63;;;46.43;;
7669;SDS011;3877;42.562;27.636;2023-01-08T05:31:33;120.73;;;46.83;;
7669;SDS011;3877;42.562;27.636;2023-01-08T05:33:59;147.93;;;50.33;;
7669;SDS011;3877;42.562;27.636;2023-01-08T05:36:26;128.37;;;48.93;;
7669;SDS011;3877;42.562;27.636;2023-01-08T05:38:55;167.33;;;48.60;;
7669;SDS011;3877;42.562;27.636;2023-01-08T05:41:22;134.63;;;48.30;;
7669;SDS011;3877;42.562;27.636;2023-01-08T05:43:49;166.87;;;51.87;;
7669;SDS011;3877;42.562;27.636;2023-01-08T05:46:16;199.93;;;53.60;;
7669;SDS011;3877;42.562;27.636;2023-01-08T05:48:44;189.47;;;54.17;;
7669;SDS011;3877;42.562;27.636;2023-01-08T05:51:11;207.43;;;56.70;;
7669;SDS011;3877;42.562;27.636;2023-01-08T05:53:37;238.27;;;55.33;;
7669;SDS011;3877;42.562;27.636;2023-01-08T05:56:05;230.30;;;58.00;;
7669;SDS011;3877;42.562;27.636;2023-01-08T05:58:32;215.97;;;53.93;;
7669;SDS011;3877;42.562;27.636;2023-01-08T06:01:02;201.23;;;55.17;;
7669;SDS011;3877;42.562;27.636;2023-01-08T06:03:29;161.43;;;51.00;;
7669;SDS011;3877;42.562;27.636;2023-01-08T06:06:00;315.23;;;58.20;;
7669;SDS011;3877;42.562;27.636;2023-01-08T06:08:27;296.63;;;51.10;;
7669;SDS011;3877;42.562;27.636;2023-01-08T06:10:57;293.80;;;53.97;;
7669;SDS011;3877;42.562;27.636;2023-01-08T06:13:24;264.87;;;55.47;;
7669;SDS011;3877;42.562;27.636;2023-01-08T06:15:51;341.97;;;55.03;;
7669;SDS011;3877;42.562;27.636;2023-01-08T06:18:18;342.97;;;56.63;;
7669;SDS011;3877;42.562;27.636;2023-01-08T06:20:44;343.07;;;60.37;;
7669;SDS011;3877;42.562;27.636;2023-01-08T06:23:13;250.97;;;61.27;;
7669;SDS011;3877;42.562;27.636;2023-01-08T06:25:39;355.60;;;67.30;;
7669;SDS011;3877;42.562;27.636;2023-01-08T06:28:06;411.00;;;69.33;;
7669;SDS011;3877;42.562;27.636;2023-01-08T06:30:33;243.70;;;61.20;;
7669;SDS011;3877;42.562;27.636;2023-01-08T06:33:00;298.53;;;52.87;;
7669;SDS011;3877;42.562;27.636;2023-01-08T06:35:27;326.90;;;52.83;;
7669;SDS011;3877;42.562;27.636;2023-01-08T06:37:54;323.03;;;53.13;;
7669;SDS011;3877;42.562;27.636;2023-01-08T06:40:22;486.43;;;58.97;;
7669;SDS011;3877;42.562;27.636;2023-01-08T06:42:49;322.43;;;52.30;;
7669;SDS011;3877;42.562;27.636;2023-01-08T06:45:16;272.47;;;51.90;;
7669;SDS011;3877;42.562;27.636;2023-01-08T06:47:43;522.37;;;63.67;;
7669;SDS011;3877;42.562;27.636;2023-01-08T06:50:10;264.87;;;48.10;;
7669;SDS011;3877;42.562;27.636;2023-01-08T06:52:37;330.27;;;51.13;;
7669;SDS011;3877;42.562;27.636;2023-01-08T06:55:04;341.47;;;52.83;;
7669;SDS011;3877;42.562;27.636;2023-01-08T06:57:32;365.67;;;55.47;;
7669;SDS011;3877;42.562;27.636;2023-01-08T06:59:59;331.00;;;57.63;;
7669;SDS011;3877;42.562;27.636;2023-01-08T07:02:26;454.57;;;62.20;;
7669;SDS011;3877;42.562;27.636;2023-01-08T07:04:53;304.00;;;54.47;;
7669;SDS011;3877;42.562;27.636;2023-01-08T07:07:19;236.23;;;48.27;;
7669;SDS011;3877;42.562;27.636;2023-01-08T07:09:46;301.33;;;46.97;;
7669;SDS011;3877;42.562;27.636;2023-01-08T07:12:13;217.57;;;43.03;;
7669;SDS011;3877;42.562;27.636;2023-01-08T07:14:41;246.07;;;43.63;;
7669;SDS011;3877;42.562;27.636;2023-01-08T07:17:08;297.60;;;42.60;;
7669;SDS011;3877;42.562;27.636;2023-01-08T07:19:35;347.27;;;41.53;;
7669;SDS011;3877;42.562;27.636;2023-01-08T07:22:01;254.63;;;39.60;;
7669;SDS011;3877;42.562;27.636;2023-01-08T07:24:28;410.77;;;45.80;;
7669;SDS011;3877;42.562;27.636;2023-01-08T07:26:55;331.57;;;48.60;;
7669;SDS011;3877;42.562;27.636;2023-01-08T07:29:22;267.07;;;40.87;;
7669;SDS011;3877;42.562;27.636;2023-01-08T07:31:50;240.60;;;33.93;;
7669;SDS011;3877;42.562;27.636;2023-01-08T07:34:17;143.77;;;26.40;;
7669;SDS011;3877;42.562;27.636;2023-01-08T07:36:44;123.40;;;25.60;;
7669;SDS011;3877;42.562;27.636;2023-01-08T07:39:10;129.90;;;27.33;;
7669;SDS011;3877;42.562;27.636;2023-01-08T07:41:37;103.67;;;29.30;;
7669;SDS011;3877;42.562;27.636;2023-01-08T07:44:04;177.13;;;36.60;;
7669;SDS011;3877;42.562;27.636;2023-01-08T07:46:31;91.67;;;28.83;;
7669;SDS011;3877;42.562;27.636;2023-01-08T07:48:59;106.50;;;30.40;;
7669;SDS011;3877;42.562;27.636;2023-01-08T07:51:26;137.13;;;27.43;;
7669;SDS011;3877;42.562;27.636;2023-01-08T07:53:54;121.50;;;26.87;;
7669;SDS011;3877;42.562;27.636;2023-01-08T07:56:21;120.90;;;29.67;;
7669;SDS011;3877;42.562;27.636;2023-01-08T07:58:47;80.27;;;25.93;;
7669;SDS011;3877;42.562;27.636;2023-01-08T08:01:14;96.63;;;28.30;;
7669;SDS011;3877;42.562;27.636;2023-01-08T08:03:41;77.63;;;25.50;;
7669;SDS011;3877;42.562;27.636;2023-01-08T08:06:10;57.27;;;26.27;;
7669;SDS011;3877;42.562;27.636;2023-01-08T08:08:36;91.47;;;29.33;;
7669;SDS011;3877;42.562;27.636;2023-01-08T08:11:03;69.13;;;26.53;;
7669;SDS011;3877;42.562;27.636;2023-01-08T08:13:30;55.73;;;25.40;;
7669;SDS011;3877;42.562;27.636;2023-01-08T08:16:00;88.70;;;27.50;;
7669;SDS011;3877;42.562;27.636;2023-01-08T08:18:26;58.03;;;26.37;;
7669;SDS011;3877;42.562;27.636;2023-01-08T08:20:53;51.00;;;25.40;;
7669;SDS011;3877;42.562;27.636;2023-01-08T08:23:22;55.13;;;27.33;;
7669;SDS011;3877;42.562;27.636;2023-01-08T08:25:48;72.60;;;25.73;;
7669;SDS011;3877;42.562;27.636;2023-01-08T08:28:16;65.07;;;24.93;;
7669;SDS011;3877;42.562;27.636;2023-01-08T08:30:43;50.57;;;23.13;;
7669;SDS011;3877;42.562;27.636;2023-01-08T08:33:10;44.47;;;21.90;;
7669;SDS011;3877;42.562;27.636;2023-01-08T08:35:37;50.30;;;23.47;;
7669;SDS011;3877;42.562;27.636;2023-01-08T08:38:04;50.97;;;24.53;;
7669;SDS011;3877;42.562;27.636;2023-01-08T08:40:32;44.20;;;22.33;;
7669;SDS011;3877;42.562;27.636;2023-01-08T08:42:59;48.80;;;23.03;;
7669;SDS011;3877;42.562;27.636;2023-01-08T08:45:26;39.77;;;23.13;;
7669;SDS011;3877;42.562;27.636;2023-01-08T08:47:53;39.63;;;23.13;;
7669;SDS011;3877;42.562;27.636;2023-01-08T08:50:20;39.70;;;22.57;;
7669;SDS011;3877;42.562;27.636;2023-01-08T08:52:47;46.40;;;27.47;;
7669;SDS011;3877;42.562;27.636;2023-01-08T08:55:14;45.97;;;27.27;;
7669;SDS011;3877;42.562;27.636;2023-01-08T08:57:43;41.93;;;26.70;;
7669;SDS011;3877;42.562;27.636;2023-01-08T09:00:10;47.60;;;27.77;;
7669;SDS011;3877;42.562;27.636;2023-01-08T09:02:38;42.53;;;27.37;;
7669;SDS011;3877;42.562;27.636;2023-01-08T09:05:05;38.57;;;26.17;;
7669;SDS011;3877;42.562;27.636;2023-01-08T09:07:32;44.37;;;30.07;;
7669;SDS011;3877;42.562;27.636;2023-01-08T09:09:58;41.37;;;26.57;;
7669;SDS011;3877;42.562;27.636;2023-01-08T09:12:25;43.23;;;26.93;;
7669;SDS011;3877;42.562;27.636;2023-01-08T09:14:53;43.67;;;27.17;;
7669;SDS011;3877;42.562;27.636;2023-01-08T09:17:21;44.13;;;28.00;;
7669;SDS011;3877;42.562;27.636;2023-01-08T09:19:49;47.53;;;29.93;;
7669;SDS011;3877;42.562;27.636;2023-01-08T09:22:16;43.67;;;29.53;;
7669;SDS011;3877;42.562;27.636;2023-01-08T09:24:43;46.60;;;29.70;;
7669;SDS011;3877;42.562;27.636;2023-01-08T09:27:10;50.13;;;30.90;;
7669;SDS011;3877;42.562;27.636;2023-01-08T09:29:36;44.47;;;31.33;;
7669;SDS011;3877;42.562;27.636;2023-01-08T09:32:05;43.90;;;30.13;;
7669;SDS011;3877;42.562;27.636;2023-01-08T09:34:32;31.77;;;21.40;;
7669;SDS011;3877;42.562;27.636;2023-01-08T09:37:00;31.83;;;20.53;;
7669;SDS011;3877;42.562;27.636;2023-01-08T09:39:27;44.87;;;28.23;;
7669;SDS011;3877;42.562;27.636;2023-01-08T09:41:54;35.63;;;23.87;;
7669;SDS011;3877;42.562;27.636;2023-01-08T09:44:23;31.37;;;20.70;;
7669;SDS011;3877;42.562;27.636;2023-01-08T09:46:52;28.30;;;18.63;;
7669;SDS011;3877;42.562;27.636;2023-01-08T09:49:23;29.07;;;20.00;;
7669;SDS011;3877;42.562;27.636;2023-01-08T09:51:52;30.37;;;20.43;;
7669;SDS011;3877;42.562;27.636;2023-01-08T09:54:19;41.23;;;26.50;;
7669;SDS011;3877;42.562;27.636;2023-01-08T09:56:48;37.83;;;26.67;;
7669;SDS011;3877;42.562;27.636;2023-01-08T09:59:15;35.87;;;24.47;;
7669;SDS011;3877;42.562;27.636;2023-01-08T10:01:43;36.57;;;25.33;;
7669;SDS011;3877;42.562;27.636;2023-01-08T10:04:13;38.00;;;24.40;;
7669;SDS011;3877;42.562;27.636;2023-01-08T10:06:41;43.57;;;25.83;;
7669;SDS011;3877;42.562;27.636;2023-01-08T10:09:12;34.17;;;20.33;;
7669;SDS011;3877;42.562;27.636;2023-01-08T10:11:41;34.70;;;24.20;;
7669;SDS011;3877;42.562;27.636;2023-01-08T10:14:13;35.07;;;24.37;;
7669;SDS011;3877;42.562;27.636;2023-01-08T10:16:43;36.17;;;24.83;;
7669;SDS011;3877;42.562;27.636;2023-01-08T10:19:12;39.20;;;25.43;;
7669;SDS011;3877;42.562;27.636;2023-01-08T10:21:39;33.53;;;23.63;;
7669;SDS011;3877;42.562;27.636;2023-01-08T10:24:08;28.77;;;19.73;;
7669;SDS011;3877;42.562;27.636;2023-01-08T10:26:35;22.63;;;16.20;;
7669;SDS011;3877;42.562;27.636;2023-01-08T10:29:06;24.50;;;16.30;;
7669;SDS011;3877;42.562;27.636;2023-01-08T10:31:32;20.73;;;13.63;;
7669;SDS011;3877;42.562;27.636;2023-01-08T10:34:07;19.50;;;14.23;;
7669;SDS011;3877;42.562;27.636;2023-01-08T10:36:36;19.57;;;13.20;;
7669;SDS011;3877;42.562;27.636;2023-01-08T10:39:04;18.00;;;13.00;;
7669;SDS011;3877;42.562;27.636;2023-01-08T10:41:37;20.50;;;13.70;;
7669;SDS011;3877;42.562;27.636;2023-01-08T10:44:05;18.00;;;12.60;;
7669;SDS011;3877;42.562;27.636;2023-01-08T10:46:33;19.27;;;13.20;;
7669;SDS011;3877;42.562;27.636;2023-01-08T10:49:02;20.13;;;13.97;;
7669;SDS011;3877;42.562;27.636;2023-01-08T10:51:31;19.40;;;12.90;;
7669;SDS011;3877;42.562;27.636;2023-01-08T10:53:58;20.70;;;14.27;;
7669;SDS011;3877;42.562;27.636;2023-01-08T10:56:26;21.10;;;13.30;;
7669;SDS011;3877;42.562;27.636;2023-01-08T10:58:54;17.17;;;12.67;;
7669;SDS011;3877;42.562;27.636;2023-01-08T11:01:22;17.27;;;12.57;;
7669;SDS011;3877;42.562;27.636;2023-01-08T11:03:49;16.30;;;12.13;;
7669;SDS011;3877;42.562;27.636;2023-01-08T11:06:19;17.63;;;13.10;;
7669;SDS011;3877;42.562;27.636;2023-01-08T11:08:49;17.90;;;12.93;;
7669;SDS011;3877;42.562;27.636;2023-01-08T11:11:16;20.03;;;12.60;;
7669;SDS011;3877;42.562;27.636;2023-01-08T11:13:48;21.90;;;12.23;;
7669;SDS011;3877;42.562;27.636;2023-01-08T11:16:18;16.10;;;11.23;;
7669;SDS011;3877;42.562;27.636;2023-01-08T11:18:45;17.03;;;11.83;;
7669;SDS011;3877;42.562;27.636;2023-01-08T11:21:17;15.20;;;10.70;;
7669;SDS011;3877;42.562;27.636;2023-01-08T11:23:44;15.27;;;11.03;;
7669;SDS011;3877;42.562;27.636;2023-01-08T11:26:13;22.80;;;12.67;;
7669;SDS011;3877;42.562;27.636;2023-01-08T11:28:44;16.97;;;11.27;;
7669;SDS011;3877;42.562;27.636;2023-01-08T11:31:13;17.03;;;12.17;;
7669;SDS011;3877;42.562;27.636;2023-01-08T11:33:41;19.20;;;10.70;;
7669;SDS011;3877;42.562;27.636;2023-01-08T11:36:11;18.87;;;11.97;;
7669;SDS011;3877;42.562;27.636;2023-01-08T11:38:39;21.30;;;12.70;;
7669;SDS011;3877;42.562;27.636;2023-01-08T11:41:10;16.10;;;11.03;;
7669;SDS011;3877;42.562;27.636;2023-01-08T11:43:39;21.23;;;12.97;;
7669;SDS011;3877;42.562;27.636;2023-01-08T11:46:19;24.03;;;12.30;;
7669;SDS011;3877;42.562;27.636;2023-01-08T11:48:52;17.33;;;11.23;;
7669;SDS011;3877;42.562;27.636;2023-01-08T11:54:09;22.17;;;12.90;;
7669;SDS011;3877;42.562;27.636;2023-01-08T11:56:48;16.33;;;11.60;;
7669;SDS011;3877;42.562;27.636;2023-01-08T11:59:17;19.00;;;12.03;;
7669;SDS011;3877;42.562;27.636;2023-01-08T12:01:50;17.83;;;12.17;;
7669;SDS011;3877;42.562;27.636;2023-01-08T12:04:26;19.07;;;11.50;;
7669;SDS011;3877;42.562;27.636;2023-01-08T12:06:57;18.60;;;12.13;;
7669;SDS011;3877;42.562;27.636;2023-01-08T12:09:30;22.30;;;13.03;;
7669;SDS011;3877;42.562;27.636;2023-01-08T12:12:02;16.03;;;10.80;;
7669;SDS011;3877;42.562;27.636;2023-01-08T12:14:37;22.43;;;13.80;;
7669;SDS011;3877;42.562;27.636;2023-01-08T12:17:11;17.33;;;10.87;;
7669;SDS011;3877;42.562;27.636;2023-01-08T12:19:49;16.33;;;11.57;;
7669;SDS011;3877;42.562;27.636;2023-01-08T12:22:22;14.97;;;10.23;;
7669;SDS011;3877;42.562;27.636;2023-01-08T12:25:06;20.53;;;11.80;;
7669;SDS011;3877;42.562;27.636;2023-01-08T12:27:42;16.40;;;11.13;;
7669;SDS011;3877;42.562;27.636;2023-01-08T12:30:16;18.87;;;11.60;;
7669;SDS011;3877;42.562;27.636;2023-01-08T12:32:48;16.60;;;11.37;;
7669;SDS011;3877;42.562;27.636;2023-01-08T12:35:17;19.93;;;12.33;;
7669;SDS011;3877;42.562;27.636;2023-01-08T12:37:47;18.67;;;14.13;;
7669;SDS011;3877;42.562;27.636;2023-01-08T12:40:17;15.80;;;9.70;;
7669;SDS011;3877;42.562;27.636;2023-01-08T12:42:45;15.70;;;9.73;;
7669;SDS011;3877;42.562;27.636;2023-01-08T12:45:16;14.93;;;10.20;;
7669;SDS011;3877;42.562;27.636;2023-01-08T12:47:45;15.87;;;11.47;;
7669;SDS011;3877;42.562;27.636;2023-01-08T12:50:23;14.17;;;10.50;;
7669;SDS011;3877;42.562;27.636;2023-01-08T12:52:53;15.30;;;9.97;;
7669;SDS011;3877;42.562;27.636;2023-01-08T12:55:25;16.83;;;10.50;;
7669;SDS011;3877;42.562;27.636;2023-01-08T12:57:56;19.97;;;10.43;;
7669;SDS011;3877;42.562;27.636;2023-01-08T13:00:26;15.27;;;9.80;;
7669;SDS011;3877;42.562;27.636;2023-01-08T13:02:57;14.57;;;10.07;;
7669;SDS011;3877;42.562;27.636;2023-01-08T13:05:31;19.33;;;11.67;;
7669;SDS011;3877;42.562;27.636;2023-01-08T13:07:59;20.87;;;10.93;;
7669;SDS011;3877;42.562;27.636;2023-01-08T13:10:28;18.57;;;10.30;;
7669;SDS011;3877;42.562;27.636;2023-01-08T13:12:58;15.90;;;10.07;;
7669;SDS011;3877;42.562;27.636;2023-01-08T13:15:26;16.83;;;10.70;;
7669;SDS011;3877;42.562;27.636;2023-01-08T13:17:54;20.63;;;12.33;;
7669;SDS011;3877;42.562;27.636;2023-01-08T13:20:22;18.17;;;11.87;;
7669;SDS011;3877;42.562;27.636;2023-01-08T13:22:53;15.63;;;10.73;;
7669;SDS011;3877;42.562;27.636;2023-01-08T13:25:30;15.87;;;11.57;;
7669;SDS011;3877;42.562;27.636;2023-01-08T13:27:57;19.73;;;14.03;;
7669;SDS011;3877;42.562;27.636;2023-01-08T13:30:31;21.57;;;13.73;;
7669;SDS011;3877;42.562;27.636;2023-01-08T13:32:58;20.10;;;12.50;;
7669;SDS011;3877;42.562;27.636;2023-01-08T13:35:25;22.03;;;12.57;;
7669;SDS011;3877;42.562;27.636;2023-01-08T13:38:11;22.10;;;15.37;;
7669;SDS011;3877;42.562;27.636;2023-01-08T13:40:48;18.90;;;14.20;;
7669;SDS011;3877;42.562;27.636;2023-01-08T13:43:18;20.77;;;12.23;;
7669;SDS011;3877;42.562;27.636;2023-01-08T13:45:46;21.83;;;14.40;;
7669;SDS011;3877;42.562;27.636;2023-01-08T13:48:21;18.23;;;12.03;;
7669;SDS011;3877;42.562;27.636;2023-01-08T13:50:49;16.10;;;12.67;;
7669;SDS011;3877;42.562;27.636;2023-01-08T13:53:17;19.17;;;13.00;;
7669;SDS011;3877;42.562;27.636;2023-01-08T13:55:46;16.70;;;12.70;;
7669;SDS011;3877;42.562;27.636;2023-01-08T13:58:19;17.90;;;13.70;;
7669;SDS011;3877;42.562;27.636;2023-01-08T14:00:49;20.63;;;14.53;;
7669;SDS011;3877;42.562;27.636;2023-01-08T14:03:21;20.27;;;14.57;;
7669;SDS011;3877;42.562;27.636;2023-01-08T14:05:48;31.07;;;20.57;;
7669;SDS011;3877;42.562;27.636;2023-01-08T14:08:23;25.70;;;17.70;;
7669;SDS011;3877;42.562;27.636;2023-01-08T14:10:50;27.23;;;18.90;;
7669;SDS011;3877;42.562;27.636;2023-01-08T14:13:18;18.77;;;14.47;;
7669;SDS011;3877;42.562;27.636;2023-01-08T14:15:46;31.30;;;19.67;;
7669;SDS011;3877;42.562;27.636;2023-01-08T14:18:13;22.53;;;15.90;;
7669;SDS011;3877;42.562;27.636;2023-01-08T14:20:40;25.53;;;18.40;;
7669;SDS011;3877;42.562;27.636;2023-01-08T14:23:09;31.83;;;22.17;;
7669;SDS011;3877;42.562;27.636;2023-01-08T14:25:38;23.40;;;16.70;;
7669;SDS011;3877;42.562;27.636;2023-01-08T14:28:05;30.53;;;21.03;;
7669;SDS011;3877;42.562;27.636;2023-01-08T14:30:32;26.40;;;19.17;;
7669;SDS011;3877;42.562;27.636;2023-01-08T14:33:00;23.40;;;16.07;;
7669;SDS011;3877;42.562;27.636;2023-01-08T14:35:28;24.60;;;17.00;;
7669;SDS011;3877;42.562;27.636;2023-01-08T14:37:57;27.90;;;15.00;;
7669;SDS011;3877;42.562;27.636;2023-01-08T14:40:28;60.10;;;33.57;;
7669;SDS011;3877;42.562;27.636;2023-01-08T14:42:56;63.53;;;40.43;;